Time;durP1;ratioP1;P1;durP2;ratioP2;P2;SDS_P1;SDS_P2;PMS_P1;PMS_P2;Temp;Humidity;BMP_temperature;BMP_pressure;BME280_temperature;BME280_humidity;BME280_pressure;Samples;Min_cycle;Max_cycle;Signal;HPM_P1;HPM_P2
2023/01/15 00:01:30;;;;;;;28.63;16.23;;;;;;;7.19;100.00;99951.66;5070125;28;20278;-58
2023/01/15 00:03:59;;;;;;;26.33;16.10;;;;;;;7.18;100.00;99950.78;5067540;28;20197;-59
2023/01/15 00:06:28;;;;;;;30.33;17.17;;;;;;;7.21;100.00;99955.94;5070424;28;20196;-58
2023/01/15 00:08:55;;;;;;;28.33;18.37;;;;;;;7.21;100.00;99953.38;5069979;28;20253;-58
2023/01/15 00:11:23;;;;;;;30.50;17.93;;;;;;;7.19;100.00;99949.94;5070502;28;20203;-62
2023/01/15 00:13:51;;;;;;;25.33;15.70;;;;;;;7.24;100.00;99953.31;5070360;28;20239;-63
2023/01/15 00:16:20;;;;;;;24.17;14.23;;;;;;;7.12;100.00;99958.56;5070302;28;20211;-61
2023/01/15 00:18:51;;;;;;;23.13;13.77;;;;;;;6.99;100.00;99964.72;5070664;28;20696;-62
2023/01/15 00:21:20;;;;;;;26.77;15.27;;;;;;;6.98;100.00;99965.59;5070516;28;20207;-62
2023/01/15 00:29:17;;;;;;;25.97;17.23;;;;;;;7.11;100.00;99956.84;5070115;28;20202;-58
2023/01/15 00:31:51;;;;;;;33.50;18.20;;;;;;;7.12;100.00;99957.72;5070144;28;20206;-59
2023/01/15 00:34:19;;;;;;;32.30;18.13;;;;;;;7.17;100.00;99956.81;5069874;28;20230;-59
2023/01/15 00:36:46;;;;;;;32.43;17.10;;;;;;;7.21;100.00;99955.94;5069915;28;20202;-58
2023/01/15 00:39:13;;;;;;;27.57;16.70;;;;;;;7.20;100.00;99958.53;5070090;28;20275;-58
2023/01/15 00:41:40;;;;;;;25.27;17.23;;;;;;;7.09;100.00;99966.38;5069856;28;20206;-62
2023/01/15 00:44:06;;;;;;;26.27;16.17;;;;;;;7.20;100.00;99961.97;5069100;28;20188;-62
2023/01/15 00:46:33;;;;;;;29.60;17.67;;;;;;;7.16;100.00;99943.94;5069864;28;20275;-63
2023/01/15 00:49:00;;;;;;;24.63;16.23;;;;;;;7.20;100.00;99954.22;5069844;28;20203;-59
2023/01/15 00:51:28;;;;;;;22.63;15.17;;;;;;;7.27;100.00;99947.28;5069569;28;20195;-58
2023/01/15 00:53:55;;;;;;;23.30;15.63;;;;;;;7.28;100.00;99954.16;5069553;28;20231;-57
2023/01/15 00:56:22;;;;;;;24.40;15.00;;;;;;;7.29;100.00;99954.16;5069585;28;20206;-58
2023/01/15 00:58:49;;;;;;;24.10;14.50;;;;;;;7.25;100.00;99946.41;5069740;28;20199;-59
2023/01/15 01:01:16;;;;;;;20.80;14.27;;;;;;;7.27;100.00;99950.72;5069477;28;20197;-58
2023/01/15 01:03:47;;;;;;;22.20;14.73;;;;;;;7.26;100.00;99946.41;5069550;28;20200;-58
2023/01/15 01:06:14;;;;;;;24.53;15.07;;;;;;;7.22;100.00;99949.06;5069792;28;20294;-58
2023/01/15 01:08:44;;;;;;;22.23;12.97;;;;;;;7.23;100.00;99943.84;5069709;28;20219;-57
2023/01/15 01:11:14;;;;;;;22.80;12.67;;;;;;;7.25;100.00;99952.44;5069345;28;20667;-58
2023/01/15 01:13:42;;;;;;;21.03;13.40;;;;;;;7.18;100.00;99948.22;5069504;28;20762;-59
2023/01/15 01:16:23;;;;;;;20.63;12.53;;;;;;;7.21;100.00;99950.78;5069107;28;20210;-57
2023/01/15 01:18:50;;;;;;;19.37;12.03;;;;;;;7.19;100.00;99949.94;5069246;28;20552;-57
2023/01/15 01:21:17;;;;;;;17.63;11.43;;;;;;;7.23;100.00;99948.16;5069408;28;20592;-59
2023/01/15 01:23:45;;;;;;;19.87;11.60;;;;;;;7.21;100.00;99944.75;5069423;28;20196;-58
2023/01/15 01:26:12;;;;;;;19.60;11.63;;;;;;;7.18;100.00;99943.06;5069097;28;20195;-58
2023/01/15 01:28:40;;;;;;;17.47;11.53;;;;;;;7.14;100.00;99948.25;5069154;28;20624;-57
2023/01/15 01:31:07;;;;;;;19.60;11.80;;;;;;;7.11;100.00;99945.72;5069000;28;20198;-58
2023/01/15 01:33:34;;;;;;;20.83;11.80;;;;;;;6.98;100.00;99944.94;5069550;28;20279;-58
2023/01/15 01:36:02;;;;;;;19.77;11.80;;;;;;;6.95;100.00;99944.94;5069163;28;20192;-58
2023/01/15 01:38:28;;;;;;;20.70;12.00;;;;;;;7.04;100.00;99936.28;5069266;28;20204;-59
2023/01/15 01:40:57;;;;;;;21.77;13.47;;;;;;;6.96;100.00;99935.50;5069069;28;20291;-58
2023/01/15 01:43:26;;;;;;;19.67;10.80;;;;;;;6.88;100.00;99943.28;5069182;28;20579;-57
2023/01/15 01:45:53;;;;;;;19.90;11.80;;;;;;;6.89;100.00;99945.84;5069222;28;20570;-59
2023/01/15 01:48:25;;;;;;;23.57;12.60;;;;;;;6.96;100.00;99933.75;5069463;28;20207;-59
2023/01/15 01:50:54;;;;;;;24.10;12.63;;;;;;;7.05;100.00;99931.09;5069120;28;20206;-57
2023/01/15 01:53:25;;;;;;;20.30;12.30;;;;;;;7.02;100.00;99933.69;5068984;28;20192;-58
2023/01/15 01:55:53;;;;;;;24.43;13.43;;;;;;;7.04;100.00;99931.97;5071202;28;20220;-58
2023/01/15 01:58:25;;;;;;;21.47;12.60;;;;;;;7.13;100.00;99939.63;5073163;28;20200;-58
2023/01/15 02:00:53;;;;;;;24.37;13.57;;;;;;;7.12;100.00;99932.75;5073064;28;20675;-58
2023/01/15 02:03:24;;;;;;;24.10;13.57;;;;;;;7.00;100.00;99932.84;5072871;28;20198;-59
2023/01/15 02:05:55;;;;;;;23.87;13.57;;;;;;;6.90;100.00;99933.78;5072976;28;20586;-57
2023/01/15 02:08:22;;;;;;;25.67;14.07;;;;;;;6.88;100.00;99938.97;5072749;28;20200;-57
2023/01/15 02:10:53;;;;;;;26.07;13.70;;;;;;;6.88;100.00;99943.28;5072300;28;20207;-58
2023/01/15 02:13:27;;;;;;;28.13;15.13;;;;;;;6.90;100.00;99933.78;5072918;28;20287;-57
2023/01/15 02:16:01;;;;;;;26.73;14.83;;;;;;;6.86;100.00;99929.53;5072776;28;20368;-61
2023/01/15 02:18:34;;;;;;;23.43;13.90;;;;;;;6.92;100.00;99930.34;5072451;28;20196;-61
2023/01/15 02:21:07;;;;;;;23.63;14.17;;;;;;;6.83;100.00;99925.25;5072347;28;20202;-58
2023/01/15 02:24:01;;;;;;;25.97;14.17;;;;;;;6.75;100.00;99924.47;5072758;28;20200;-58
2023/01/15 02:27:00;;;;;;;22.93;13.07;;;;;;;6.77;100.00;99929.63;5072503;28;20206;-59
2023/01/15 02:29:34;;;;;;;22.10;12.40;;;;;;;6.82;100.00;99928.69;5072175;28;20192;-56
2023/01/15 02:32:08;;;;;;;22.07;12.00;;;;;;;6.81;100.00;99931.28;5072629;28;20577;-58
2023/01/15 02:34:42;;;;;;;20.03;12.33;;;;;;;6.80;100.00;99919.25;5072192;28;20219;-58
2023/01/15 02:37:12;;;;;;;21.37;11.90;;;;;;;6.82;100.00;99920.97;5072323;28;20200;-57
2023/01/15 02:39:42;;;;;;;18.43;11.20;;;;;;;6.84;100.00;99916.66;5072348;28;20715;-57
2023/01/15 02:42:12;;;;;;;19.17;11.97;;;;;;;6.62;100.00;99891.00;5072208;28;20218;-58
2023/01/15 02:44:44;;;;;;;20.93;12.10;;;;;;;6.74;100.00;99925.31;5072425;28;20206;-58
2023/01/15 02:47:13;;;;;;;23.00;12.63;;;;;;;6.83;100.00;99929.56;5072149;28;20258;-58
2023/01/15 02:49:42;;;;;;;20.57;12.43;;;;;;;6.84;100.00;99928.69;5072207;28;20199;-62
2023/01/15 02:52:14;;;;;;;23.43;12.23;;;;;;;6.83;100.00;99921.81;5072135;28;20200;-62
2023/01/15 02:54:45;;;;;;;23.20;13.43;;;;;;;6.79;100.00;99925.28;5072049;28;20220;-62
2023/01/15 02:57:16;;;;;;;23.53;13.50;;;;;;;6.76;100.00;99921.00;5072024;28;20192;-61
2023/01/15 02:59:47;;;;;;;24.47;13.63;;;;;;;6.75;100.00;99924.47;5072120;28;20204;-61
2023/01/15 03:02:20;;;;;;;25.87;14.40;;;;;;;6.85;100.00;99923.53;5072448;28;20210;-61
2023/01/15 03:04:51;;;;;;;23.30;12.93;;;;;;;6.89;100.00;99934.66;5072362;28;20250;-58
2023/01/15 03:07:22;;;;;;;25.40;13.77;;;;;;;6.79;100.00;99933.88;5071686;28;20202;-58
2023/01/15 03:09:51;;;;;;;26.73;14.23;;;;;;;6.86;100.00;99930.41;5072200;28;20202;-58
2023/01/15 03:12:26;;;;;;;27.17;14.20;;;;;;;6.87;100.00;99926.09;5072389;28;20196;-57
2023/01/15 03:15:02;;;;;;;25.60;15.07;;;;;;;6.81;100.00;99924.41;5072162;28;20605;-57
2023/01/15 03:17:35;;;;;;;26.17;14.37;;;;;;;6.83;100.00;99925.25;5072129;28;20382;-61
2023/01/15 03:20:09;;;;;;;25.73;14.93;;;;;;;6.85;100.00;99918.38;5071926;28;20287;-62
2023/01/15 03:22:40;;;;;;;24.37;14.10;;;;;;;6.83;100.00;99926.97;5072064;28;20211;-62
2023/01/15 03:25:11;;;;;;;23.13;13.37;;;;;;;6.77;100.00;99922.69;5071999;28;20223;-62
2023/01/15 03:27:40;;;;;;;24.67;13.60;;;;;;;6.79;100.00;99923.56;5071827;28;20228;-61
2023/01/15 03:30:11;;;;;;;24.60;13.93;;;;;;;6.81;100.00;99926.97;5071751;28;20204;-61
2023/01/15 03:32:38;;;;;;;24.20;13.73;;;;;;;6.63;100.00;99913.38;5071865;28;20288;-61
2023/01/15 03:35:07;;;;;;;21.20;12.43;;;;;;;6.73;100.00;99917.59;5071534;28;20227;-62
2023/01/15 03:37:33;;;;;;;24.30;14.00;;;;;;;6.81;100.00;99920.97;5071670;28;20645;-62
2023/01/15 03:40:00;;;;;;;23.10;12.93;;;;;;;6.73;100.00;99915.00;5071530;28;20211;-57
2023/01/15 03:42:38;;;;;;;19.70;12.27;;;;;;;6.73;100.00;99915.00;5071402;28;20222;-57
2023/01/15 03:45:14;;;;;;;24.30;13.53;;;;;;;6.63;100.00;99915.94;5071759;28;20214;-61
2023/01/15 03:47:50;;;;;;;22.53;12.97;;;;;;;6.49;100.00;99914.31;5071972;28;20590;-61
2023/01/15 03:50:26;;;;;;;24.37;14.07;;;;;;;6.42;100.00;99915.22;5071507;28;20199;-62
2023/01/15 03:53:05;;;;;;;26.93;15.20;;;;;;;6.49;100.00;99913.44;5071351;28;20195;-62
2023/01/15 03:55:39;;;;;;;21.67;14.20;;;;;;;6.52;100.00;99914.28;5071309;28;20223;-61
2023/01/15 03:58:12;;;;;;;29.40;16.63;;;;;;;6.54;100.00;99922.88;5071397;28;20237;-62
2023/01/15 04:00:44;;;;;;;26.87;16.40;;;;;;;6.61;100.00;99923.69;5071349;28;20676;-61
2023/01/15 04:03:14;;;;;;;29.47;17.83;;;;;;;6.65;100.00;99921.94;5070903;28;20198;-61
2023/01/15 04:05:43;;;;;;;29.50;15.00;;;;;;;6.70;100.00;99927.91;5071377;28;20218;-60
2023/01/15 04:08:12;;;;;;;30.83;16.00;;;;;;;6.77;100.00;99922.69;5070954;28;20196;-62
2023/01/15 04:10:51;;;;;;;30.30;16.40;;;;;;;6.89;100.00;99927.78;5070632;28;20208;-62
2023/01/15 04:13:18;;;;;;;24.33;14.33;;;;;;;6.89;100.00;99932.06;5071161;28;20686;-61
2023/01/15 04:15:46;;;;;;;27.43;16.03;;;;;;;6.90;100.00;99923.47;5070907;28;20439;-62
2023/01/15 04:18:13;;;;;;;27.93;15.97;;;;;;;6.92;100.00;99934.66;5070442;28;20200;-57
2023/01/15 04:20:40;;;;;;;26.53;16.00;;;;;;;6.88;100.00;99938.97;5070531;28;20196;-58
2023/01/15 04:23:07;;;;;;;25.00;15.53;;;;;;;6.88;100.00;99930.41;5070637;28;20202;-58
2023/01/15 04:25:34;;;;;;;26.77;16.03;;;;;;;6.74;100.00;99933.06;5070937;28;20199;-58
2023/01/15 04:28:00;;;;;;;31.93;17.40;;;;;;;6.76;100.00;99933.91;5070478;28;20335;-62
2023/01/15 04:30:27;;;;;;;31.03;17.20;;;;;;;6.67;100.00;99923.63;5070529;28;20196;-62
2023/01/15 04:32:57;;;;;;;39.87;21.23;;;;;;;6.87;100.00;99939.84;5070606;28;20291;-62
2023/01/15 04:35:23;;;;;;;39.00;20.80;;;;;;;6.90;100.00;99942.38;5070383;28;20219;-58
2023/01/15 04:37:55;;;;;;;40.47;19.07;;;;;;;6.92;100.00;99948.41;5070225;28;20200;-58
2023/01/15 04:45:51;;;;;;;39.20;18.37;;;;;;;7.11;100.00;99946.53;5050449;28;20273;-62
2023/01/15 04:48:19;;;;;;;40.23;17.77;;;;;;;7.09;100.00;99948.28;5050430;28;20205;-61
2023/01/15 04:50:46;;;;;;;40.07;17.77;;;;;;;7.00;100.00;99952.69;5050405;28;20287;-61
2023/01/15 04:53:13;;;;;;;41.63;17.53;;;;;;;6.91;100.00;99945.84;5049994;28;20196;-61
2023/01/15 04:55:40;;;;;;;35.67;17.73;;;;;;;6.98;100.00;99950.09;5050176;28;20226;-60
2023/01/15 04:58:07;;;;;;;42.13;18.40;;;;;;;6.91;100.00;99949.28;5050003;28;20200;-60
2023/01/15 05:00:34;;;;;;;44.80;18.07;;;;;;;6.95;100.00;99957.00;5050387;28;20200;-61
2023/01/15 05:03:01;;;;;;;40.07;18.37;;;;;;;6.97;100.00;99961.28;5050043;28;20197;-60
2023/01/15 05:05:31;;;;;;;38.33;17.67;;;;;;;7.03;100.00;99961.22;5050138;28;20576;-60
2023/01/15 05:07:58;;;;;;;41.40;17.90;;;;;;;6.82;100.00;99953.63;5049937;28;20200;-61
2023/01/15 05:10:25;;;;;;;43.73;18.27;;;;;;;6.65;100.00;99964.09;5050227;28;20921;-60
2023/01/15 05:12:52;;;;;;;46.40;18.77;;;;;;;6.67;100.00;99953.72;5050341;28;20222;-62
2023/01/15 05:15:18;;;;;;;40.47;18.13;;;;;;;6.75;100.00;99958.00;5050077;28;20224;-61
2023/01/15 05:17:45;;;;;;;44.10;18.20;;;;;;;6.73;100.00;99953.72;5050008;28;20200;-61
2023/01/15 05:20:13;;;;;;;36.43;17.73;;;;;;;6.86;100.00;99963.94;5062844;28;20218;-64
2023/01/15 05:22:42;;;;;;;39.57;17.47;;;;;;;6.89;100.00;99961.31;5069899;28;20200;-62
2023/01/15 05:25:09;;;;;;;41.60;17.80;;;;;;;6.90;100.00;99959.59;5069880;28;20592;-62
2023/01/15 05:27:35;;;;;;;42.00;18.83;;;;;;;6.86;100.00;99955.34;5069900;28;20228;-58
2023/01/15 05:30:02;;;;;;;37.27;17.23;;;;;;;6.81;100.00;99964.81;5069383;28;20202;-61
2023/01/15 05:32:30;;;;;;;38.00;18.20;;;;;;;6.71;100.00;99964.03;5069790;28;20195;-60
2023/01/15 05:34:57;;;;;;;36.40;17.93;;;;;;;6.77;100.00;99960.56;5069407;28;20223;-60
2023/01/15 05:37:25;;;;;;;30.60;16.27;;;;;;;6.80;100.00;99971.69;5070104;28;20530;-57
2023/01/15 05:39:53;;;;;;;28.13;14.07;;;;;;;6.81;100.00;99962.25;5070108;28;20199;-57
2023/01/15 05:42:20;;;;;;;22.43;13.63;;;;;;;6.85;100.00;99969.97;5069564;28;20192;-58
2023/01/15 05:44:47;;;;;;;20.33;12.30;;;;;;;6.77;100.00;99976.06;5069430;28;20198;-58
2023/01/15 05:47:14;;;;;;;24.67;13.17;;;;;;;6.64;100.00;99969.25;5069239;28;20682;-58
2023/01/15 05:49:41;;;;;;;18.83;12.00;;;;;;;6.65;100.00;99971.81;5069188;28;20191;-58
2023/01/15 05:52:08;;;;;;;23.33;13.20;;;;;;;6.54;100.00;99971.88;5069558;28;20675;-58
2023/01/15 05:54:35;;;;;;;23.30;11.23;;;;;;;6.58;100.00;99972.69;5069352;28;20733;-58
2023/01/15 05:57:04;;;;;;;23.10;12.63;;;;;;;6.64;100.00;99972.69;5069559;28;20246;-58
2023/01/15 05:59:33;;;;;;;19.80;11.50;;;;;;;6.60;100.00;99970.13;5069784;28;20195;-58
2023/01/15 06:02:00;;;;;;;20.00;11.90;;;;;;;6.52;100.00;99981.34;5069157;28;20199;-58
2023/01/15 06:04:26;;;;;;;17.60;11.60;;;;;;;6.57;100.00;99984.72;5069864;28;20204;-58
2023/01/15 06:06:55;;;;;;;18.23;11.07;;;;;;;6.54;100.00;99977.03;5069699;28;20200;-57
2023/01/15 06:09:22;;;;;;;21.50;12.27;;;;;;;6.53;100.00;99977.91;5069416;28;20192;-58
2023/01/15 06:11:50;;;;;;;21.40;12.13;;;;;;;6.56;100.00;99983.00;5069401;28;20229;-59
2023/01/15 06:14:18;;;;;;;20.00;12.30;;;;;;;6.57;100.00;99974.41;5069026;28;20615;-57
2023/01/15 06:16:45;;;;;;;22.40;12.20;;;;;;;6.39;100.00;99979.69;5069179;28;20254;-57
2023/01/15 06:19:13;;;;;;;20.90;12.80;;;;;;;6.46;100.00;99976.19;5069377;28;20579;-58
2023/01/15 06:21:40;;;;;;;27.17;13.67;;;;;;;6.47;100.00;99977.91;5069530;28;20195;-58
2023/01/15 06:24:08;;;;;;;24.70;12.80;;;;;;;6.47;100.00;99972.75;5069349;28;20561;-58
2023/01/15 06:26:35;;;;;;;22.83;12.83;;;;;;;6.52;100.00;99972.75;5069190;28;20234;-58
2023/01/15 06:29:02;;;;;;;24.83;14.53;;;;;;;6.54;100.00;99969.31;5068998;28;20287;-57
2023/01/15 06:31:31;;;;;;;24.10;13.90;;;;;;;6.52;100.00;99958.13;5069496;28;20234;-58
2023/01/15 06:33:58;;;;;;;31.07;18.50;;;;;;;6.58;100.00;99964.97;5069467;28;20581;-59
2023/01/15 06:36:26;;;;;;;31.50;17.70;;;;;;;6.65;100.00;99969.25;5068980;28;20226;-59
2023/01/15 06:38:54;;;;;;;36.03;18.83;;;;;;;6.51;100.00;99979.63;5069256;28;20698;-60
2023/01/15 06:49:40;;;;;;;25.87;12.73;;;;;;;6.32;100.00;99988.28;5072843;28;20199;-59
2023/01/15 06:52:07;;;;;;;23.70;12.90;;;;;;;6.38;100.00;99993.44;5072323;28;20724;-58
2023/01/15 06:54:34;;;;;;;27.37;14.67;;;;;;;6.29;100.00;99969.41;5072909;28;20207;-58
2023/01/15 06:57:01;;;;;;;28.03;14.47;;;;;;;6.33;100.00;99987.41;5061073;28;20307;-58
2023/01/15 06:59:28;;;;;;;24.07;13.83;;;;;;;6.32;100.00;99988.28;5070171;28;20636;-58
2023/01/15 07:01:57;;;;;;;27.57;13.57;;;;;;;6.32;100.00;99987.47;5071104;28;20285;-58
2023/01/15 07:04:24;;;;;;;29.20;14.93;;;;;;;6.42;100.00;99992.56;5071147;28;20219;-58
2023/01/15 07:06:51;;;;;;;27.07;16.03;;;;;;;6.32;100.00;99993.44;5070516;28;20220;-57
2023/01/15 07:09:18;;;;;;;26.30;15.43;;;;;;;6.32;100.00;99982.31;5071454;28;20697;-60
2023/01/15 07:11:49;;;;;;;34.27;19.60;;;;;;;6.38;100.00;99998.59;5070386;28;20223;-60
2023/01/15 07:14:17;;;;;;;32.97;18.63;;;;;;;6.33;100.00;100000.31;5071198;28;20224;-60
2023/01/15 07:16:44;;;;;;;31.43;18.10;;;;;;;6.46;100.00;100001.13;5070720;28;20310;-60
2023/01/15 07:19:12;;;;;;;32.87;18.60;;;;;;;6.22;100.00;99957.41;5070134;28;20690;-61
2023/01/15 07:21:39;;;;;;;27.90;16.17;;;;;;;6.39;100.00;99992.56;5071026;28;20202;-60
2023/01/15 07:24:07;;;;;;;30.70;17.97;;;;;;;6.47;100.00;99997.69;5071537;28;20196;-60
2023/01/15 07:26:35;;;;;;;31.30;19.10;;;;;;;6.42;100.00;99979.69;5071862;28;20191;-59
2023/01/15 07:29:02;;;;;;;35.43;19.70;;;;;;;6.57;100.00;100001.94;5071769;28;20202;-58
2023/01/15 07:31:28;;;;;;;36.57;20.57;;;;;;;6.43;100.00;99999.41;5071800;28;20668;-60
2023/01/15 07:33:56;;;;;;;33.40;21.20;;;;;;;6.48;100.00;100005.41;5071581;28;20295;-59
2023/01/15 07:36:25;;;;;;;40.63;22.00;;;;;;;6.57;100.00;99996.78;5071651;28;20232;-59
2023/01/15 07:38:52;;;;;;;38.43;22.93;;;;;;;6.71;100.00;99989.81;5071855;28;20206;-60
2023/01/15 07:49:48;;;;;;;40.43;22.30;;;;;;;6.90;100.00;100000.88;5071708;28;20695;-58
2023/01/15 07:52:18;;;;;;;52.57;27.57;;;;;;;6.97;100.00;100000.00;5071239;28;20192;-59
2023/01/15 07:54:45;;;;;;;52.57;27.47;;;;;;;7.04;100.00;100005.97;5070979;28;20196;-60
2023/01/15 07:57:15;;;;;;;48.00;28.10;;;;;;;7.11;100.00;100012.81;5071260;28;21223;-59
2023/01/15 07:59:42;;;;;;;46.43;24.83;;;;;;;7.16;100.00;100009.31;5071151;28;20206;-57
2023/01/15 08:02:09;;;;;;;28.73;16.00;;;;;;;7.21;100.00;100011.88;5070975;28;20196;-57
2023/01/15 08:04:36;;;;;;;31.47;18.47;;;;;;;6.99;100.00;99982.78;5071178;28;20200;-58
2023/01/15 08:07:03;;;;;;;45.17;25.87;;;;;;;7.15;100.00;100020.50;5070830;28;20196;-57
2023/01/15 08:09:32;;;;;;;27.20;16.07;;;;;;;7.10;100.00;100031.75;5070995;28;20238;-58
2023/01/15 08:17:28;;;;;;;33.80;19.07;;;;;;;6.86;100.00;100022.44;5050832;28;20250;-58
2023/01/15 08:19:55;;;;;;;32.60;18.57;;;;;;;6.96;100.00;100023.22;5051064;28;20594;-58
2023/01/15 08:22:22;;;;;;;34.00;18.97;;;;;;;7.12;100.00;100024.81;5050871;28;20584;-57
2023/01/15 08:24:50;;;;;;;38.13;22.03;;;;;;;7.19;100.00;100019.63;5051063;28;20253;-58
2023/01/15 08:27:17;;;;;;;40.60;23.37;;;;;;;7.23;100.00;100013.56;5067838;28;21175;-57
2023/01/15 08:29:44;;;;;;;40.23;22.37;;;;;;;7.33;100.00;100023.84;5069180;28;20673;-58
2023/01/15 08:32:11;;;;;;;34.10;18.17;;;;;;;7.45;100.00;100009.09;5069457;28;20647;-57
2023/01/15 08:34:38;;;;;;;29.67;17.13;;;;;;;7.47;100.00;100022.84;5069917;28;20205;-57
2023/01/15 08:37:05;;;;;;;25.90;15.60;;;;;;;7.42;100.00;100024.63;5069641;28;20606;-57
2023/01/15 08:39:32;;;;;;;32.60;18.83;;;;;;;7.37;100.00;100020.34;5069755;28;20619;-58
2023/01/15 08:42:00;;;;;;;26.60;15.90;;;;;;;7.37;100.00;100020.34;5069591;28;20636;-56
2023/01/15 08:44:27;;;;;;;32.27;17.27;;;;;;;7.33;100.00;100016.09;5068353;28;20192;-57
2023/01/15 08:46:54;;;;;;;28.80;13.93;;;;;;;7.35;100.00;100007.44;5068404;28;20191;-57
2023/01/15 08:49:21;;;;;;;33.90;19.23;;;;;;;7.42;100.00;100011.72;5069603;28;20204;-57
2023/01/15 08:51:50;;;;;;;34.23;16.93;;;;;;;7.52;100.00;100007.31;5069945;28;20196;-57
2023/01/15 08:54:19;;;;;;;37.67;20.60;;;;;;;7.67;100.00;100004.63;5069999;28;20257;-57
2023/01/15 08:56:46;;;;;;;34.40;19.60;;;;;;;7.57;100.00;99987.47;5070061;28;20250;-57
2023/01/15 08:59:14;;;;;;;36.97;18.77;;;;;;;7.67;100.00;100001.16;5067325;28;20192;-58
2023/01/15 09:01:43;;;;;;;34.57;17.40;;;;;;;7.54;100.00;100003.00;5069249;28;20218;-58
2023/01/15 09:04:14;;;;;;;35.23;19.57;;;;;;;7.63;100.00;100010.66;5069695;28;20291;-57
2023/01/15 09:06:41;;;;;;;32.47;18.27;;;;;;;7.72;100.00;100001.97;5069952;28;20557;-56
2023/01/15 09:09:08;;;;;;;32.93;18.23;;;;;;;7.72;100.00;100002.81;5069717;28;20192;-57
2023/01/15 09:11:39;;;;;;;33.03;17.87;;;;;;;7.64;100.00;99989.13;5069878;28;20200;-57
2023/01/15 09:14:06;;;;;;;29.07;18.10;;;;;;;7.80;100.00;100001.00;5068512;28;20663;-56
2023/01/15 09:16:35;;;;;;;33.47;19.30;;;;;;;7.74;100.00;100001.09;5048847;28;20220;-57
2023/01/15 09:19:02;;;;;;;36.63;20.27;;;;;;;7.76;100.00;99999.34;5048883;28;20663;-58
2023/01/15 09:21:29;;;;;;;27.23;18.43;;;;;;;7.65;100.00;99996.00;5060195;28;20196;-57
2023/01/15 09:23:56;;;;;;;23.10;15.03;;;;;;;7.56;100.00;99998.69;5068447;28;20600;-56
2023/01/15 09:26:29;;;;;;;25.57;16.40;;;;;;;7.52;100.00;99994.41;5068249;28;20401;-56
2023/01/15 09:28:56;;;;;;;26.00;17.10;;;;;;;7.60;100.00;99985.72;5068848;28;20206;-57
2023/01/15 09:31:23;;;;;;;28.80;17.03;;;;;;;7.55;100.00;99990.09;5069019;28;20231;-58
2023/01/15 09:33:52;;;;;;;25.07;15.23;;;;;;;7.44;100.00;99972.97;5069020;28;20584;-57
2023/01/15 09:36:28;;;;;;;20.70;13.47;;;;;;;7.46;100.00;99976.38;5068655;28;20220;-58
2023/01/15 09:38:55;;;;;;;23.40;14.10;;;;;;;7.56;100.00;99975.44;5068774;28;20209;-57
2023/01/15 09:44:26;;;;;;;28.00;16.20;;;;;;;7.71;100.00;99972.69;5068765;28;20207;-57
2023/01/15 09:47:03;;;;;;;20.57;13.73;;;;;;;7.59;100.00;99942.66;5069311;28;20188;-57
2023/01/15 09:49:45;;;;;;;17.80;12.30;;;;;;;7.81;100.00;99971.72;5068665;28;20200;-58
2023/01/15 09:52:21;;;;;;;19.27;12.37;;;;;;;7.73;100.00;99973.53;5068716;28;20196;-57
2023/01/15 09:54:57;;;;;;;18.40;12.23;;;;;;;7.69;100.00;99965.81;5068923;28;20195;-58
2023/01/15 09:57:26;;;;;;;21.83;13.70;;;;;;;7.65;100.00;99970.19;5066008;28;20220;-58
2023/01/15 09:59:59;;;;;;;16.87;12.13;;;;;;;7.56;100.00;99954.78;5067367;28;20577;-59
2023/01/15 10:02:34;;;;;;;16.53;11.27;;;;;;;7.61;100.00;99963.31;5048683;28;20219;-57
2023/01/15 10:05:08;;;;;;;15.40;10.10;;;;;;;7.66;100.00;99958.97;5048527;28;20192;-57
2023/01/15 10:07:39;;;;;;;17.37;12.10;;;;;;;7.66;100.00;99956.41;5048636;28;20195;-57
2023/01/15 10:10:11;;;;;;;23.13;14.27;;;;;;;7.59;100.00;99949.56;5048407;28;20201;-57
2023/01/15 10:12:41;;;;;;;13.37;9.80;;;;;;;7.50;100.00;99949.66;5048988;28;20597;-57
2023/01/15 10:15:20;;;;;;;19.27;12.70;;;;;;;7.56;100.00;99949.59;5048385;28;20203;-57
2023/01/15 10:17:49;;;;;;;19.73;11.97;;;;;;;7.62;100.00;99944.38;5050013;28;20263;-58
2023/01/15 10:20:33;;;;;;;22.23;12.80;;;;;;;7.64;100.00;99940.03;5052347;28;20219;-58
2023/01/15 10:23:13;;;;;;;18.97;12.07;;;;;;;7.62;100.00;99921.97;5052259;28;20197;-57
2023/01/15 10:25:47;;;;;;;28.97;17.80;;;;;;;7.71;100.00;99921.00;5052054;28;20207;-57
2023/01/15 10:28:20;;;;;;;26.93;15.40;;;;;;;7.85;100.00;99910.53;5051980;28;20225;-57
2023/01/15 10:30:51;;;;;;;20.23;14.40;;;;;;;7.84;100.00;99899.34;5052168;28;20196;-58
2023/01/15 10:33:39;;;;;;;36.13;21.23;;;;;;;7.98;100.00;99906.94;5070096;28;20202;-61
2023/01/15 10:36:15;;;;;;;37.93;22.63;;;;;;;8.11;100.00;99899.88;5072047;28;20192;-60
2023/01/15 10:38:49;;;;;;;32.30;18.50;;;;;;;8.21;100.00;99904.06;5071003;28;20191;-60
2023/01/15 10:41:48;;;;;;;30.60;17.77;;;;;;;8.21;100.00;99888.53;5070512;28;20202;-60
2023/01/15 10:44:20;;;;;;;29.17;16.90;;;;;;;8.11;100.00;99893.00;5069261;28;20195;-60
2023/01/15 10:46:56;;;;;;;32.80;18.27;;;;;;;8.15;100.00;99888.63;5069116;28;20583;-62
2023/01/15 10:49:23;;;;;;;37.77;19.83;;;;;;;8.12;100.00;99888.69;5071352;28;20196;-61
2023/01/15 10:51:53;;;;;;;42.87;21.07;;;;;;;8.14;100.00;99886.91;5071568;28;20192;-60
2023/01/15 10:54:29;;;;;;;25.37;14.80;;;;;;;8.21;100.00;99886.81;5071710;28;20196;-60
2023/01/15 10:57:08;;;;;;;30.77;15.97;;;;;;;8.13;100.00;99880.88;5071700;28;20227;-59
2023/01/15 10:59:42;;;;;;;34.37;17.47;;;;;;;8.19;100.00;99864.44;5071796;28;20235;-60
2023/01/15 11:02:23;;;;;;;57.43;24.03;;;;;;;8.20;100.00;99872.19;5071745;28;20238;-60
2023/01/15 11:04:50;;;;;;;51.13;21.90;;;;;;;8.20;100.00;99866.16;5072236;28;20200;-59
2023/01/15 11:07:19;;;;;;;29.27;15.33;;;;;;;8.10;100.00;99838.72;5072297;28;20685;-58
2023/01/15 11:09:47;;;;;;;24.87;13.30;;;;;;;8.25;100.00;99862.59;5072213;28;20200;-59
2023/01/15 11:20:49;;;;;;;26.33;14.13;;;;;;;8.32;100.00;99850.50;5072054;28;20274;-61
2023/01/15 11:23:21;;;;;;;27.47;14.20;;;;;;;8.43;100.00;99850.34;5071625;28;20588;-60
2023/01/15 11:25:50;;;;;;;30.23;14.83;;;;;;;8.40;100.00;99853.81;5071835;28;20246;-59
2023/01/15 11:28:18;;;;;;;29.03;15.10;;;;;;;8.47;100.00;99841.63;5070570;28;20285;-59
2023/01/15 11:30:54;;;;;;;30.30;15.23;;;;;;;8.54;100.00;99841.53;5071679;28;20204;-59
2023/01/15 11:33:23;;;;;;;19.70;12.40;;;;;;;8.58;100.00;99838.00;5071113;28;20265;-59
2023/01/15 11:35:56;;;;;;;25.87;14.37;;;;;;;8.74;100.00;99841.22;5070470;28;20192;-59
2023/01/15 11:38:26;;;;;;;24.30;13.57;;;;;;;8.34;100.00;99808.22;5050952;28;20240;-59
2023/01/15 11:40:54;;;;;;;27.10;14.07;;;;;;;8.53;100.00;99826.91;5049650;28;20234;-58
2023/01/15 11:51:56;;;;;;;38.93;19.47;;;;;;;8.53;100.00;99821.72;5068623;28;20222;-59
2023/01/15 11:54:26;;;;;;;33.33;17.13;;;;;;;8.35;100.00;99820.25;5068966;28;20223;-60
2023/01/15 11:56:55;;;;;;;33.97;19.67;;;;;;;8.42;100.00;99821.03;5069274;28;20222;-62
2023/01/15 11:59:23;;;;;;;29.90;16.87;;;;;;;8.40;100.00;99807.25;5068922;28;20200;-60
2023/01/15 12:01:58;;;;;;;70.77;40.50;;;;;;;8.42;100.00;99810.69;5070284;28;20210;-60
2023/01/15 12:04:33;;;;;;;39.10;22.27;;;;;;;8.39;100.00;99815.91;5070069;28;20257;-59
2023/01/15 12:07:01;;;;;;;28.80;16.90;;;;;;;8.18;100.00;99800.66;5069593;28;20636;-60
2023/01/15 12:09:48;;;;;;;25.43;15.00;;;;;;;8.15;100.00;99795.53;5067246;28;20682;-59
2023/01/15 12:12:25;;;;;;;25.90;13.93;;;;;;;8.20;100.00;99796.34;5068099;28;20192;-60
2023/01/15 12:15:09;;;;;;;26.93;15.37;;;;;;;8.22;100.00;99799.75;5067708;28;20664;-61
2023/01/15 12:17:58;;;;;;;30.27;15.70;;;;;;;8.27;100.00;99791.03;5068355;28;20207;-63
2023/01/15 12:20:30;;;;;;;26.80;16.73;;;;;;;8.01;100.00;99788.81;5069411;28;20676;-59
2023/01/15 12:23:17;;;;;;;31.97;17.93;;;;;;;7.92;100.00;99782.94;5069587;28;20218;-61